createdAt,value
2018-02-18T00:02:25.316Z,79.80
2018-02-18T00:04:53.359Z,80.30
2018-02-18T00:07:21.437Z,80.00
2018-02-18T00:09:49.480Z,79.90
2018-02-18T00:12:17.524Z,80.80
2018-02-18T00:14:52.107Z,81.40
2018-02-18T00:17:20.131Z,81.40
2018-02-18T00:19:48.987Z,82.50
2018-02-18T00:22:17.013Z,82.40
2018-02-18T00:24:45.067Z,82.50
2018-02-18T00:27:13.101Z,82.70
2018-02-18T00:29:41.217Z,83.60
2018-02-18T00:32:09.269Z,83.80
2018-02-18T00:34:38.079Z,83.40
2018-02-18T00:37:06.142Z,83.40
2018-02-18T00:39:34.941Z,82.40
2018-02-18T00:42:02.988Z,82.40
2018-02-18T00:44:31.020Z,82.40
2018-02-18T00:46:59.965Z,83.00
2018-02-18T00:49:28.021Z,82.90
2018-02-18T00:51:56.053Z,82.80
2018-02-18T00:54:24.112Z,82.80
2018-02-18T00:56:52.152Z,83.40
2018-02-18T00:59:20.981Z,83.70
2018-02-18T01:01:49.052Z,83.60
2018-02-18T01:04:17.101Z,83.40
2018-02-18T01:06:45.153Z,83.10
2018-02-18T01:09:13.196Z,83.50
2018-02-18T01:11:42.012Z,83.30
2018-02-18T01:14:10.069Z,83.20
2018-02-18T01:16:38.864Z,84.70
2018-02-18T01:19:07.687Z,84.20
2018-02-18T01:21:36.494Z,84.60
2018-02-18T01:24:04.552Z,84.50
2018-02-18T01:26:32.613Z,84.40
2018-02-18T01:29:00.654Z,84.10
2018-02-18T01:31:28.729Z,83.90
2018-02-18T01:33:56.776Z,83.70
2018-02-18T01:36:24.832Z,84.20
2018-02-18T01:38:52.888Z,84.60
2018-02-18T01:41:20.921Z,85.90
2018-02-18T01:43:48.993Z,86.50
2018-02-18T01:46:17.431Z,86.40
2018-02-18T01:48:46.234Z,87.20
2018-02-18T01:51:15.059Z,87.30
2018-02-18T01:53:43.046Z,87.20
2018-02-18T01:56:11.053Z,88.80
2018-02-18T01:58:39.068Z,89.00
2018-02-18T02:01:07.833Z,88.80
2018-02-18T02:03:35.865Z,88.70
2018-02-18T02:06:03.891Z,88.90
2018-02-18T02:08:31.908Z,87.90
2018-02-18T02:11:00.708Z,86.30
2018-02-18T02:13:28.705Z,86.00
2018-02-18T02:15:57.495Z,86.00
2018-02-18T02:18:26.252Z,87.60
2018-02-18T02:20:55.040Z,87.50
2018-02-18T02:23:23.052Z,87.50
2018-02-18T02:25:51.039Z,87.50
2018-02-18T02:28:19.052Z,87.70
2018-02-18T02:30:47.826Z,87.40
2018-02-18T02:33:15.854Z,87.40
2018-02-18T02:35:44.421Z,88.20
2018-02-18T02:38:13.220Z,88.50
2018-02-18T02:40:41.204Z,87.80
2018-02-18T02:43:10.016Z,86.70
2018-02-18T02:45:38.789Z,86.30
2018-02-18T02:48:06.783Z,85.80
2018-02-18T02:50:34.806Z,86.30
2018-02-18T02:53:02.813Z,86.30
2018-02-18T02:55:30.836Z,86.80
2018-02-18T02:57:58.856Z,88.00
2018-02-18T03:00:26.856Z,88.10
2018-02-18T03:02:54.869Z,88.70
2018-02-18T03:05:22.884Z,88.60
2018-02-18T03:07:51.656Z,88.50
2018-02-18T03:10:19.652Z,88.40
2018-02-18T03:12:48.432Z,88.40
2018-02-18T03:15:16.453Z,88.40
2018-02-18T03:17:45.217Z,88.30
2018-02-18T03:20:13.240Z,88.20
2018-02-18T03:22:42.018Z,87.60
2018-02-18T03:25:10.018Z,87.50
2018-02-18T03:27:38.800Z,87.20
2018-02-18T03:30:06.798Z,87.10
2018-02-18T03:32:35.584Z,86.30
2018-02-18T03:35:03.616Z,86.30
2018-02-18T03:37:31.620Z,86.40
2018-02-18T03:40:00.407Z,86.40
2018-02-18T03:42:28.417Z,86.30
2018-02-18T03:44:56.425Z,86.10
2018-02-18T03:47:25.212Z,86.00
2018-02-18T03:49:53.236Z,86.00
2018-02-18T03:52:21.240Z,86.10
2018-02-18T03:54:49.276Z,86.00
2018-02-18T03:57:18.064Z,85.40
2018-02-18T03:59:46.064Z,85.30
2018-02-18T04:02:14.881Z,85.30
2018-02-18T04:04:42.906Z,85.10
2018-02-18T04:07:10.897Z,85.30
2018-02-18T04:09:38.933Z,85.40
2018-02-18T04:12:07.606Z,85.50
2018-02-18T04:14:36.364Z,85.50
2018-02-18T04:17:04.381Z,85.40
2018-02-18T04:19:32.392Z,86.00
2018-02-18T04:22:00.392Z,87.70
2018-02-18T04:24:28.409Z,87.40
2018-02-18T04:26:56.411Z,87.40
2018-02-18T04:29:24.414Z,87.90
2018-02-18T04:31:53.585Z,87.10
2018-02-18T04:34:21.605Z,87.00
2018-02-18T04:36:50.447Z,86.60
2018-02-18T04:39:18.442Z,86.50
2018-02-18T04:41:46.457Z,85.40
2018-02-18T04:44:14.457Z,84.50
2018-02-18T04:46:43.242Z,84.20
2018-02-18T04:49:12.025Z,85.10
2018-02-18T04:51:40.041Z,84.10
2018-02-18T04:54:08.833Z,84.90
2018-02-18T04:56:37.621Z,84.90
2018-02-18T04:59:05.628Z,84.90
2018-02-18T05:01:34.417Z,84.00
2018-02-18T05:04:03.204Z,83.90
2018-02-18T05:06:31.192Z,83.20
2018-02-18T05:08:59.208Z,83.10
2018-02-18T05:11:27.237Z,83.40
2018-02-18T05:13:55.261Z,83.50
2018-02-18T05:16:24.044Z,84.90
2018-02-18T05:18:52.838Z,85.50
2018-02-18T05:21:20.836Z,85.40
2018-02-18T05:23:49.623Z,87.90
2018-02-18T05:26:17.648Z,88.60
2018-02-18T05:28:45.656Z,88.10
2018-02-18T05:31:13.671Z,87.70
2018-02-18T05:33:41.684Z,87.60
2018-02-18T05:36:09.680Z,87.70
2018-02-18T05:38:37.712Z,88.50
2018-02-18T05:41:05.732Z,88.60
2018-02-18T05:43:33.744Z,87.80
2018-02-18T05:46:03.520Z,87.50
2018-02-18T05:48:32.304Z,87.40
2018-02-18T05:51:00.308Z,87.20
2018-02-18T05:53:29.091Z,87.60
2018-02-18T05:55:57.099Z,87.50
2018-02-18T05:58:25.869Z,88.10
2018-02-18T06:00:53.888Z,88.00
2018-02-18T06:03:23.077Z,88.90
2018-02-18T06:05:51.077Z,88.80
2018-02-18T06:08:19.868Z,88.70
2018-02-18T06:10:47.865Z,88.60
2018-02-18T06:13:15.864Z,89.10
2018-02-18T06:15:43.908Z,88.70
2018-02-18T06:18:11.924Z,87.70
2018-02-18T06:20:39.928Z,87.70
2018-02-18T06:23:07.960Z,87.40
2018-02-18T06:25:36.748Z,86.30
2018-02-18T06:28:04.760Z,86.10
2018-02-18T06:30:33.544Z,86.30
2018-02-18T06:33:02.326Z,88.10
2018-02-18T06:35:30.320Z,88.00
2018-02-18T06:37:58.352Z,88.40
2018-02-18T06:40:26.357Z,87.70
2018-02-18T06:42:54.369Z,87.50
2018-02-18T06:45:22.380Z,86.50
2018-02-18T06:47:50.396Z,87.30
2018-02-18T06:50:18.405Z,86.70
2018-02-18T06:52:46.426Z,85.50
2018-02-18T06:55:15.213Z,86.70
2018-02-18T06:57:43.985Z,88.00
2018-02-18T07:00:12.028Z,88.00
2018-02-18T07:02:40.047Z,88.20
2018-02-18T07:05:08.056Z,89.10
2018-02-18T07:07:36.416Z,89.40
2018-02-18T07:10:04.445Z,90.00
2018-02-18T07:12:33.208Z,90.00
2018-02-18T07:15:01.216Z,89.80
2018-02-18T07:17:30.005Z,90.30
2018-02-18T07:19:58.005Z,90.30
2018-02-18T07:22:26.782Z,89.40
2018-02-18T07:24:54.892Z,89.30
2018-02-18T07:27:23.670Z,89.10
2018-02-18T07:29:51.698Z,88.90
2018-02-18T07:32:19.744Z,88.20
2018-02-18T07:34:47.740Z,88.80
2018-02-18T07:37:16.541Z,86.70
2018-02-18T07:39:45.319Z,86.60
2018-02-18T07:42:13.326Z,86.50
2018-02-18T07:44:41.349Z,87.60
2018-02-18T07:47:09.364Z,88.00
2018-02-18T07:49:37.352Z,87.90
2018-02-18T07:52:05.373Z,92.70
2018-02-18T07:54:34.729Z,83.90
2018-02-18T07:57:02.728Z,83.40
2018-02-18T07:59:30.747Z,75.00
2018-02-18T08:01:59.564Z,70.60
2018-02-18T08:04:27.561Z,70.40
2018-02-18T08:06:55.576Z,65.70
2018-02-18T08:09:23.614Z,63.90
2018-02-18T08:11:51.624Z,62.60
2018-02-18T08:14:19.642Z,58.30
2018-02-18T08:16:47.668Z,57.90
2018-02-18T08:19:15.666Z,61.30
2018-02-18T08:21:43.680Z,65.50
2018-02-18T08:24:11.695Z,68.60
2018-02-18T08:26:40.452Z,73.80
2018-02-18T08:29:08.471Z,73.70
2018-02-18T08:31:37.246Z,77.10
2018-02-18T08:34:05.241Z,77.00
2018-02-18T08:36:33.265Z,77.80
2018-02-18T08:39:01.285Z,80.20
2018-02-18T08:41:30.093Z,81.20
2018-02-18T08:43:58.104Z,81.20
2018-02-18T08:46:26.887Z,81.30
2018-02-18T08:48:54.895Z,81.30
2018-02-18T08:51:25.193Z,80.10
2018-02-18T08:53:53.225Z,80.10
2018-02-18T08:56:21.234Z,79.90
2018-02-18T08:58:49.261Z,79.60
2018-02-18T09:01:17.276Z,79.00
2018-02-18T09:03:45.266Z,78.30
2018-02-18T09:06:13.306Z,77.50
2018-02-18T09:08:41.333Z,77.70
2018-02-18T09:11:09.355Z,75.30
2018-02-18T09:13:37.369Z,74.30
2018-02-18T09:16:06.152Z,76.20
2018-02-18T09:18:34.138Z,76.20
2018-02-18T09:21:02.148Z,76.60
2018-02-18T09:23:30.168Z,76.40
2018-02-18T09:25:58.164Z,71.90
2018-02-18T09:28:26.181Z,70.50
2018-02-18T09:30:54.969Z,70.20
2018-02-18T09:33:22.963Z,70.10
2018-02-18T09:35:51.742Z,70.10
2018-02-18T09:38:19.758Z,69.50
2018-02-18T09:40:48.538Z,66.90
2018-02-18T09:43:17.341Z,66.60
2018-02-18T09:45:45.356Z,66.50
2018-02-18T09:48:13.356Z,66.00
2018-02-18T09:50:41.363Z,66.00
2018-02-18T09:53:09.363Z,66.10
2018-02-18T09:55:37.365Z,65.50
2018-02-18T09:58:06.148Z,68.20
2018-02-18T10:00:34.140Z,68.10
2018-02-18T10:03:02.135Z,66.30
2018-02-18T10:05:30.133Z,67.80
2018-02-18T10:07:58.136Z,67.40
2018-02-18T10:10:26.137Z,65.00
2018-02-18T10:12:54.145Z,66.90
2018-02-18T10:15:22.157Z,67.30
2018-02-18T10:17:50.160Z,62.90
2018-02-18T10:20:18.194Z,61.40
2018-02-18T10:22:46.209Z,60.70
2018-02-18T10:25:15.045Z,59.90
2018-02-18T10:27:42.981Z,59.80
2018-02-18T10:30:11.743Z,57.40
2018-02-18T10:32:39.762Z,57.40
2018-02-18T10:35:07.755Z,57.40
2018-02-18T10:37:36.524Z,55.90
2018-02-18T10:40:04.522Z,55.80
2018-02-18T10:42:32.521Z,57.90
2018-02-18T10:45:00.533Z,58.70
2018-02-18T10:47:28.550Z,58.60
2018-02-18T10:49:56.548Z,57.90
2018-02-18T10:52:24.562Z,57.00
2018-02-18T10:54:52.557Z,58.00
2018-02-18T10:57:20.621Z,58.50
2018-02-18T10:59:48.600Z,58.70
2018-02-18T11:02:16.598Z,59.50
2018-02-18T11:04:44.604Z,54.40
2018-02-18T11:07:12.608Z,56.80
2018-02-18T11:09:40.588Z,57.30
2018-02-18T11:12:08.601Z,53.70
2018-02-18T11:14:37.381Z,52.90
2018-02-18T11:17:05.356Z,52.90
2018-02-18T11:19:33.365Z,55.50
2018-02-18T11:22:02.143Z,53.80
2018-02-18T11:24:30.134Z,53.80
2018-02-18T11:26:58.132Z,55.90
2018-02-18T11:29:26.922Z,52.60
2018-02-18T11:31:54.907Z,52.70
2018-02-18T11:34:22.930Z,52.40
2018-02-18T11:36:50.950Z,51.50
2018-02-18T11:39:18.944Z,52.40
2018-02-18T11:41:46.955Z,53.60
2018-02-18T11:44:15.704Z,53.70
2018-02-18T11:46:43.718Z,53.70
2018-02-18T11:49:11.716Z,52.90
2018-02-18T11:51:40.505Z,51.70
2018-02-18T11:54:09.257Z,52.70
2018-02-18T11:56:37.273Z,52.70
2018-02-18T11:59:05.277Z,53.10
2018-02-18T12:01:34.035Z,54.10
2018-02-18T12:04:02.024Z,54.10
2018-02-18T12:06:30.012Z,52.90
2018-02-18T12:08:58.028Z,54.30
2018-02-18T12:11:26.780Z,53.60
2018-02-18T12:13:54.789Z,53.50
2018-02-18T12:16:22.861Z,51.80
2018-02-18T12:18:51.645Z,54.60
2018-02-18T12:21:19.668Z,54.60
2018-02-18T12:23:48.449Z,53.60
2018-02-18T12:26:16.447Z,53.50
2018-02-18T12:28:45.224Z,53.80
2018-02-18T12:31:13.228Z,53.40
2018-02-18T12:33:41.244Z,50.80
2018-02-18T12:36:09.236Z,52.00
2018-02-18T12:38:37.254Z,52.80
2018-02-18T12:41:05.244Z,53.30
2018-02-18T12:43:33.267Z,52.80
2018-02-18T12:46:02.033Z,51.20
2018-02-18T12:48:30.028Z,51.20
2018-02-18T12:50:58.028Z,52.30
2018-02-18T12:53:26.809Z,50.70
2018-02-18T12:55:54.822Z,50.60
2018-02-18T12:58:22.855Z,50.70
2018-02-18T13:00:50.864Z,51.80
2018-02-18T13:03:18.872Z,52.70
2018-02-18T13:05:46.885Z,53.00
2018-02-18T13:08:14.898Z,53.00
2018-02-18T13:10:42.888Z,54.10
2018-02-18T13:13:10.897Z,52.10
2018-02-18T13:15:38.889Z,51.90
2018-02-18T13:18:06.886Z,52.40
2018-02-18T13:20:34.948Z,52.70
2018-02-18T13:23:02.889Z,50.90
2018-02-18T13:25:30.892Z,51.00
2018-02-18T13:27:59.652Z,51.10
2018-02-18T13:30:28.416Z,52.00
2018-02-18T13:32:56.436Z,52.00
2018-02-18T13:35:24.420Z,51.10
2018-02-18T13:37:52.475Z,50.30
2018-02-18T13:40:20.430Z,49.40
2018-02-18T13:42:49.201Z,51.10
2018-02-18T13:45:17.195Z,51.00
2018-02-18T13:47:45.204Z,51.00
2018-02-18T13:50:13.216Z,52.10
2018-02-18T13:52:41.210Z,51.60
2018-02-18T13:55:09.200Z,51.80
2018-02-18T13:57:37.175Z,51.00
2018-02-18T14:00:05.194Z,51.20
2018-02-18T14:02:33.184Z,50.80
2018-02-18T14:05:01.197Z,50.70
2018-02-18T14:07:29.196Z,50.70
2018-02-18T14:09:57.180Z,52.10
2018-02-18T14:12:25.185Z,53.50
2018-02-18T14:14:53.176Z,52.70
2018-02-18T14:17:21.189Z,53.80
2018-02-18T14:19:49.966Z,53.50
2018-02-18T14:22:17.964Z,53.50
2018-02-18T14:24:46.746Z,51.90
2018-02-18T14:27:14.741Z,51.80
2018-02-18T14:29:42.745Z,51.00
2018-02-18T14:32:11.512Z,52.20
2018-02-18T14:34:39.496Z,52.20
2018-02-18T14:37:07.499Z,50.90
2018-02-18T14:39:36.266Z,52.00
2018-02-18T14:42:16.033Z,51.90
2018-02-18T14:44:55.995Z,51.50
2018-02-18T14:47:35.825Z,51.50
2018-02-18T14:50:15.662Z,51.00
2018-02-18T14:52:55.400Z,50.90
2018-02-18T14:55:36.789Z,52.20
2018-02-18T14:58:04.753Z,52.00
2018-02-18T15:00:32.761Z,51.60
2018-02-18T15:03:01.518Z,52.60
2018-02-18T15:05:29.549Z,52.60
2018-02-18T15:07:58.309Z,53.30
2018-02-18T15:10:26.348Z,53.20
2018-02-18T15:12:54.342Z,53.30
2018-02-18T15:15:22.367Z,52.50
2018-02-18T15:17:50.357Z,51.90
2018-02-18T15:20:18.354Z,51.80
2018-02-18T15:22:47.109Z,51.80
2018-02-18T15:25:15.140Z,51.80
2018-02-18T15:27:43.917Z,53.40
2018-02-18T15:30:11.923Z,53.30
2018-02-18T15:32:40.719Z,52.60
2018-02-18T15:35:08.702Z,52.50
2018-02-18T15:37:36.713Z,52.30
2018-02-18T15:40:04.733Z,53.50
2018-02-18T15:42:32.758Z,53.20
2018-02-18T15:45:01.542Z,55.40
2018-02-18T15:47:29.578Z,55.30
2018-02-18T15:49:57.585Z,55.60
2018-02-18T15:52:25.593Z,55.30
2018-02-18T15:54:53.605Z,55.90
2018-02-18T15:57:21.624Z,56.20
2018-02-18T15:59:49.643Z,54.80
2018-02-18T16:02:17.636Z,55.00
2018-02-18T16:04:46.393Z,53.70
2018-02-18T16:07:14.401Z,53.70
2018-02-18T16:09:42.401Z,54.00
2018-02-18T16:12:11.176Z,54.30
2018-02-18T16:14:39.177Z,54.20
2018-02-18T16:17:07.165Z,54.40
2018-02-18T16:19:35.964Z,55.10
2018-02-18T16:22:03.958Z,55.00
2018-02-18T16:24:32.734Z,55.00
2018-02-18T16:27:00.733Z,54.90
2018-02-18T16:29:29.511Z,55.50
2018-02-18T16:31:57.496Z,55.40
2018-02-18T16:34:25.489Z,56.00
2018-02-18T16:36:53.513Z,56.20
2018-02-18T16:39:21.510Z,56.50
2018-02-18T16:41:49.538Z,56.60
2018-02-18T16:44:17.560Z,57.10
2018-02-18T16:46:45.561Z,57.60
2018-02-18T16:49:13.565Z,57.30
2018-02-18T16:51:41.552Z,57.50
2018-02-18T16:54:09.557Z,57.50
2018-02-18T16:56:37.548Z,57.50
2018-02-18T16:59:06.319Z,58.00
2018-02-18T17:01:34.316Z,57.90
2018-02-18T17:04:02.337Z,58.40
2018-02-18T17:06:30.329Z,58.80
2018-02-18T17:08:58.353Z,59.30
2018-02-18T17:11:26.333Z,59.60
2018-02-18T17:13:54.365Z,60.10
2018-02-18T17:16:22.435Z,60.30
2018-02-18T17:18:50.471Z,60.50
2018-02-18T17:21:18.488Z,60.70
2018-02-18T17:23:46.485Z,60.90
2018-02-18T17:26:15.271Z,61.30
2018-02-18T17:28:43.244Z,61.30
2018-02-18T17:31:11.269Z,61.50
2018-02-18T17:33:39.256Z,62.00
2018-02-18T17:36:07.252Z,62.60
2018-02-18T17:38:35.282Z,63.40
2018-02-18T17:41:03.277Z,63.80
2018-02-18T17:43:32.046Z,65.60
2018-02-18T17:46:00.113Z,65.50
2018-02-18T17:48:28.121Z,66.00
2018-02-18T17:50:56.122Z,66.90
2018-02-18T17:53:24.125Z,69.20
2018-02-18T17:55:54.500Z,68.40
2018-02-18T17:58:22.517Z,68.10
2018-02-18T18:00:50.525Z,68.00
2018-02-18T18:03:18.525Z,67.90
2018-02-18T18:05:46.529Z,68.30
2018-02-18T18:08:15.285Z,69.30
2018-02-18T18:10:43.280Z,69.10
2018-02-18T18:13:11.289Z,69.90
2018-02-18T18:15:39.287Z,69.40
2018-02-18T18:18:07.286Z,68.60
2018-02-18T18:20:35.276Z,68.60
2018-02-18T18:23:03.296Z,70.20
2018-02-18T18:25:31.289Z,70.10
2018-02-18T18:27:59.297Z,70.50
2018-02-18T18:30:27.305Z,70.30
2018-02-18T18:32:55.326Z,69.30
2018-02-18T18:35:23.315Z,69.60
2018-02-18T18:37:51.329Z,70.20
2018-02-18T18:40:19.348Z,71.00
2018-02-18T18:42:47.354Z,70.50
2018-02-18T18:45:15.354Z,70.60
2018-02-18T18:47:43.356Z,70.90
2018-02-18T18:50:11.351Z,71.60
2018-02-18T18:52:39.369Z,71.40
2018-02-18T18:55:07.376Z,70.50
2018-02-18T18:57:35.385Z,70.70
2018-02-18T19:00:03.401Z,72.00
2018-02-18T19:02:31.397Z,72.00
2018-02-18T19:05:00.185Z,71.40
2018-02-18T19:07:28.188Z,71.30
2018-02-18T19:09:56.208Z,72.10
2018-02-18T19:12:24.193Z,73.30
2018-02-18T19:14:52.216Z,73.40
2018-02-18T19:17:20.218Z,72.90
2018-02-18T19:19:48.234Z,73.80
2018-02-18T19:22:16.245Z,71.80
2018-02-18T19:24:44.247Z,70.60
2018-02-18T19:27:12.289Z,72.20
2018-02-18T19:29:40.289Z,72.40
2018-02-18T19:32:08.288Z,72.70
2018-02-18T19:34:36.309Z,72.80
2018-02-18T19:37:04.313Z,72.00
2018-02-18T19:39:32.340Z,72.20
2018-02-18T19:42:00.355Z,71.00
2018-02-18T19:44:28.365Z,70.60
2018-02-18T19:46:56.366Z,69.60
2018-02-18T19:49:24.367Z,68.40
2018-02-18T19:51:52.370Z,68.50
2018-02-18T19:54:21.137Z,68.90
2018-02-18T19:56:50.126Z,68.80
2018-02-18T19:59:18.135Z,68.40
2018-02-18T20:01:46.132Z,68.30
2018-02-18T20:04:14.893Z,67.30
2018-02-18T20:06:42.901Z,67.20
2018-02-18T20:09:10.912Z,67.70
2018-02-18T20:11:39.664Z,68.20
2018-02-18T20:14:07.664Z,68.10
2018-02-18T20:16:35.658Z,68.00
2018-02-18T20:19:03.677Z,68.20
2018-02-18T20:21:31.676Z,67.80
2018-02-18T20:23:59.671Z,67.20
2018-02-18T20:26:27.685Z,67.30
2018-02-18T20:28:55.689Z,67.20
2018-02-18T20:31:24.469Z,67.80
2018-02-18T20:33:52.477Z,67.70
2018-02-18T20:36:20.471Z,69.40
2018-02-18T20:38:48.496Z,68.80
2018-02-18T20:41:16.505Z,68.20
2018-02-18T20:43:44.504Z,67.50
2018-02-18T20:46:12.512Z,67.30
2018-02-18T20:48:40.497Z,67.80
2018-02-18T20:51:08.504Z,67.40
2018-02-18T20:53:36.540Z,68.10
2018-02-18T20:56:04.534Z,67.90
2018-02-18T20:58:32.555Z,67.70
2018-02-18T21:01:00.574Z,68.40
2018-02-18T21:03:28.602Z,69.00
2018-02-18T21:05:56.597Z,69.40
2018-02-18T21:08:24.607Z,69.70
2018-02-18T21:10:52.617Z,69.70
2018-02-18T21:13:20.626Z,69.90
2018-02-18T21:15:48.660Z,70.20
2018-02-18T21:18:16.659Z,71.60
2018-02-18T21:20:45.422Z,73.80
2018-02-18T21:23:13.424Z,73.80
2018-02-18T21:25:42.208Z,75.30
2018-02-18T21:28:10.201Z,75.20
2018-02-18T21:30:38.180Z,75.10
2018-02-18T21:33:06.189Z,74.80
2018-02-18T21:35:35.010Z,74.00
2018-02-18T21:38:03.009Z,73.80
2018-02-18T21:40:31.004Z,73.40
2018-02-18T21:42:58.997Z,73.10
2018-02-18T21:45:27.006Z,73.40
2018-02-18T21:47:55.056Z,74.00
2018-02-18T21:50:23.777Z,73.00
2018-02-18T21:52:52.873Z,73.00
2018-02-18T21:55:21.860Z,73.80
2018-02-18T21:57:49.862Z,73.00
2018-02-18T22:00:17.862Z,74.00
2018-02-18T22:02:45.893Z,74.00
2018-02-18T22:05:13.904Z,74.00
2018-02-18T22:07:41.897Z,72.00
2018-02-18T22:10:09.901Z,71.80
2018-02-18T22:12:37.894Z,71.60
2018-02-18T22:15:06.661Z,71.70
2018-02-18T22:17:34.656Z,71.70
2018-02-18T22:20:02.673Z,71.40
2018-02-18T22:22:30.680Z,70.20
2018-02-18T22:24:58.684Z,69.80
2018-02-18T22:27:26.681Z,69.30
2018-02-18T22:29:54.684Z,70.80
2018-02-18T22:32:23.442Z,71.80
2018-02-18T22:34:51.440Z,71.80
2018-02-18T22:37:19.443Z,71.10
2018-02-18T22:39:47.448Z,70.50
2018-02-18T22:42:15.445Z,70.90
2018-02-18T22:44:43.445Z,71.20
2018-02-18T22:47:11.437Z,71.90
2018-02-18T22:49:39.444Z,72.20
2018-02-18T22:52:08.304Z,71.70
2018-02-18T22:54:36.288Z,71.30
2018-02-18T22:57:04.294Z,71.40
2018-02-18T22:59:32.293Z,71.80
2018-02-18T23:02:00.291Z,71.80
2018-02-18T23:04:29.071Z,72.40
2018-02-18T23:06:57.053Z,72.40
2018-02-18T23:09:25.060Z,73.10
2018-02-18T23:11:53.813Z,72.50
2018-02-18T23:14:21.826Z,72.40
2018-02-18T23:16:50.609Z,72.30
2018-02-18T23:19:19.388Z,72.40
2018-02-18T23:21:47.400Z,72.30
2018-02-18T23:24:15.392Z,72.60
2018-02-18T23:26:43.432Z,72.10
2018-02-18T23:29:11.868Z,72.60
2018-02-18T23:31:39.869Z,72.40
2018-02-18T23:34:07.872Z,72.50
2018-02-18T23:36:35.880Z,72.50
2018-02-18T23:39:03.905Z,72.70
2018-02-18T23:41:31.888Z,72.80
2018-02-18T23:44:00.669Z,73.60
2018-02-18T23:46:28.681Z,72.80
2018-02-18T23:48:57.433Z,72.80
2018-02-18T23:51:25.460Z,72.80
2018-02-18T23:53:53.464Z,73.40
2018-02-18T23:56:21.480Z,73.60
2018-02-18T23:58:49.492Z,75.30
